ADDS TAF Board (Experimental) INFO

IDs: Format: Expanded Condensed

Updated at: 1115 UTC 01 Sep 2014

KIAD - Washington/Dulles In, VA, US

Issued at 0833 UTC 01 Sep 2014
Time1052Z01/12Z01/13Z01/14Z01/15Z01/16Z01/17Z01/18Z01/19Z01/20Z01/21Z01/22Z01/23Z02/00Z
TypeOBSPRVLPRVLPRVLPRVLPRVLPRVLPRVLPRVLPRVLPRVLPRVLPRVLPRVL
VIS10>6>6>6>6>6>6>6>6>6>6>6>6>6
CIG9030303030303535353535------
CoverBKNBKNBKNBKNBKNBKNBKNBKNBKNBKNBKNSCTSCTSCT
FltCat--MVFRMVFRMVFRMVFRMVFRVFRVFRVFRVFRVFRVFRVFRVFR
WX-RA----------VCTSVCTSVCTSVCTSVCTS------
WDirVRB200200200200200250250250250250200200200
WSpd03333355555777
WGst----------------------------
R01/19
XWndVRB1111155555222
HWndVRB-3-3-3-3-3-2-2-2-2-2-7-7-7
R12/30
XWndVRB-3-3-3-3-3-3-3-3-3-3-7-7-7
HWndVRB00000-4-4-4-4-4000
Raw TAF
KIAD 010833Z 0109/0212 00000KT P6SM VCSH OVC070
  FM011200 20003KT P6SM BKN030
  FM011700 25005KT P6SM VCTS BKN035CB
  FM012200 20007KT P6SM SCT050
  FM020500 00000KT P6SM FEW050


Raw METAR
KIAD 011052Z 00000KT 10SM -RA SCT060 BKN090 BKN200 22/22 A3004 RMK AO2 RAB21 SLP170 P0000 T02220217

TAF Board Legend

Hazard VFR MVFR IFR LIFR
Visibility (sm) >5 3≤X≤5 1≤X<3 <1
Ceiling (100 ft) >30 10≤X≤30 5≤X<10 <5
Wind Speed (kt) <10 10≤X<20 20≤X<30 ≥30
Wind Gust (kt) <15 15≤X<25 25≤X<35 ≥35
Weather No Wx Reported VCTS,-TS,-FZRA TS,FZRA +TS,+FZRA


Page loaded:  11:15 UTC  |   04:15 AM Pacific  |   05:15 AM Mountain  |   06:15 AM Central  |   07:15 AM Eastern

 

ADVISORIES

FORECASTS

FORECASTS

OBSERVATIONS

USER TOOLS

ABOUT US